Mineral Wells, TX

12:53 AM CST on December 06, 2016 (GMT -0600)
Mineral Wells | | Change Station
Active Advisory: Dense Fog Advisory

Elev 971 ft 32.78 °N, 98.06 °W | Updated 1 hour ago

Fog
Fog
44 °F
Feels Like 40 °F
N
7
Wind Variable Wind from SSE

Today
High -- | Low -- °F
--% Chance of Precip.
Yesterday
High -- | Low -- °F
Precip. -- in
Pressure 29.69 in
Visibility 0.2 miles
Clouds
Windchill 40 °F
Dew Point 44 °F
Humidity 100%
Rainfall 0.06 in
Snow Depth Not available.
7:21 AM 5:25 PM
Waxing Crescent, 39% visible
METAR KMWL 060553Z AUTO 15006KT 1/4SM FG VV001 07/07 A2969 RMK AO2 SLP052 T00670067 10078 20061 401000039 58004
Pressure 29.69 in
Visibility 0.2 miles
Clouds
Windchill 40 °F
Dew Point 44 °F
Humidity 100%
Rainfall 0.06 in
Snow Depth Not available.
7:21 AM 5:25 PM
Waxing Crescent, 39% visible
METAR KMWL 060553Z AUTO 15006KT 1/4SM FG VV001 07/07 A2969 RMK AO2 SLP052 T00670067 10078 20061 401000039 58004

10-Day Weather Forecast

Almanac

Astronomy

Dec. 06, 2016 Rise Set
Actual Time
Civil Twilight
Nautical Twilight
Astronomical Twilight
Moon
Length of Visible Light
Length of Day
Tomorrow will be .
, % of the Moon is Illuminated

Today's Extremes

State Highs State Lows

Community

WunderPhotos

Upload Photos

1,955,931 photos uploaded!

WunderBlog® & News

Nearby

Air Quality

  Air Quality AQ Index Pollutant
Not available.

Snow Depth

Station Depth Elevation

Earthquake Activity

City Distance Mag. Time & Date
Minimum magnitude displayed is 2.5.

Coastal Water Temperatures

Place Temperature

Stations

Nearby Weather Stations

Station Location Temp. Windchill Dew Point Humidity Wind Precip. Elev Updated Type
                   

Watches & Warnings

Dense Fog Advisory
Issued: 10:08 PM CST Dec. 5, 2016 – National Weather Service

... Dense fog advisory in effect until 8 am CST Tuesday...

The National Weather Service in Fort Worth has issued a dense fog
advisory... which is in effect until 8 am CST Tuesday.

* Visibility... half a mile with occasionally a quarter of a mile
or less.

* Location... most of the Interstate 20, Interstate 35 and
Interstate 45 corridors.

* Timing... midnight until 8 am.

* Impacts... visibility restrictions may produce hazardous driving
conditions during early morning commutes.

Precautionary/preparedness actions...

A dense fog advisory means visibilities will be reduced to less
than one quarter mile. If driving... slow down... use your low-beam
headlights... and leave plenty of distance between you and the
vehicle ahead of you.



30